createdAt,value
2019-05-09T00:01:26.406Z,10.40
2019-05-09T00:03:55.772Z,10.40
2019-05-09T00:06:25.189Z,10.30
2019-05-09T00:08:54.623Z,10.30
2019-05-09T00:11:24.740Z,10.20
2019-05-09T00:13:54.262Z,10.30
2019-05-09T00:16:23.770Z,10.20
2019-05-09T00:18:54.049Z,10.30
2019-05-09T00:21:27.969Z,10.30
2019-05-09T00:23:57.347Z,10.30
2019-05-09T00:26:26.694Z,10.20
2019-05-09T00:28:57.688Z,10.10
2019-05-09T00:31:28.759Z,10.10
2019-05-09T00:33:59.770Z,10.20
2019-05-09T00:36:29.123Z,10.20
2019-05-09T00:38:58.472Z,10.20
2019-05-09T00:41:27.843Z,10.30
2019-05-09T00:43:58.833Z,10.30
2019-05-09T00:46:38.533Z,10.30
2019-05-09T00:49:09.541Z,10.30
2019-05-09T00:51:38.895Z,10.30
2019-05-09T00:54:08.241Z,10.20
2019-05-09T00:56:37.617Z,10.40
2019-05-09T00:59:06.963Z,10.40
2019-05-09T01:01:36.359Z,10.40
2019-05-09T01:04:05.749Z,10.40
2019-05-09T01:06:35.115Z,10.40
2019-05-09T01:09:06.601Z,10.50
2019-05-09T01:11:35.976Z,10.50
2019-05-09T01:14:05.395Z,10.60
2019-05-09T01:16:34.836Z,10.60
2019-05-09T01:19:04.493Z,10.60
2019-05-09T01:21:34.000Z,10.60
2019-05-09T01:24:03.689Z,10.60
2019-05-09T01:26:33.498Z,10.70
2019-05-09T01:29:04.427Z,10.70
2019-05-09T01:31:33.955Z,10.70
2019-05-09T01:34:08.033Z,10.70
2019-05-09T01:36:54.987Z,10.80
2019-05-09T01:39:24.346Z,10.80
2019-05-09T01:41:53.713Z,10.70
2019-05-09T01:44:23.980Z,10.70
2019-05-09T01:46:54.201Z,10.70
2019-05-09T01:49:23.510Z,10.80
2019-05-09T01:51:53.704Z,10.80
2019-05-09T01:54:24.725Z,10.80
2019-05-09T01:56:54.095Z,10.70
2019-05-09T01:59:24.377Z,10.60
2019-05-09T02:01:54.279Z,10.70
2019-05-09T02:04:24.396Z,10.60
2019-05-09T02:06:54.005Z,10.60
2019-05-09T02:09:23.590Z,10.50
2019-05-09T02:11:54.601Z,10.60
2019-05-09T02:14:28.623Z,10.60
2019-05-09T02:16:59.636Z,10.60
2019-05-09T02:19:36.063Z,10.50
2019-05-09T02:22:07.077Z,10.60
2019-05-09T02:24:36.695Z,10.50
2019-05-09T02:27:06.067Z,10.50
2019-05-09T02:29:35.424Z,10.50
2019-05-09T02:32:05.467Z,10.40
2019-05-09T02:34:35.785Z,10.50
2019-05-09T02:37:05.228Z,10.40
2019-05-09T02:39:34.577Z,10.60
2019-05-09T02:42:09.369Z,10.40
2019-05-09T02:44:35.363Z,10.30
2019-05-09T02:47:09.021Z,10.40
2019-05-09T02:49:39.086Z,10.50
2019-05-09T02:52:09.018Z,10.50
2019-05-09T02:54:39.285Z,10.60
2019-05-09T02:57:09.561Z,10.40
2019-05-09T02:59:50.108Z,10.50
2019-05-09T03:02:23.846Z,10.40
2019-05-09T03:04:53.463Z,10.40
2019-05-09T03:07:24.572Z,10.30
2019-05-09T03:09:53.998Z,10.20
2019-05-09T03:12:34.515Z,10.30
2019-05-09T03:14:54.559Z,10.20
2019-05-09T03:17:23.929Z,10.10
2019-05-09T03:19:53.272Z,10.10
2019-05-09T03:22:24.422Z,10.10
2019-05-09T03:24:53.766Z,10.10
2019-05-09T03:27:33.462Z,10.00
2019-05-09T03:30:04.525Z,10.10
2019-05-09T03:32:33.902Z,10.20
2019-05-09T03:35:03.414Z,10.10
2019-05-09T03:37:32.782Z,10.10
2019-05-09T03:40:02.160Z,10.00
2019-05-09T03:42:41.974Z,10.10
2019-05-09T03:45:03.245Z,10.00
2019-05-09T03:47:34.310Z,9.90
2019-05-09T03:50:14.402Z,9.80
2019-05-09T03:52:43.766Z,9.80
2019-05-09T03:55:17.710Z,9.80
2019-05-09T03:58:04.586Z,9.70
2019-05-09T04:00:33.998Z,9.80
2019-05-09T04:03:03.365Z,9.90
2019-05-09T04:05:32.714Z,10.00
2019-05-09T04:08:18.141Z,9.90
2019-05-09T04:10:53.410Z,9.70
2019-05-09T04:13:24.811Z,10.00
2019-05-09T04:15:54.166Z,10.00
2019-05-09T04:18:23.532Z,10.10
2019-05-09T04:20:52.878Z,10.10
2019-05-09T04:23:22.251Z,10.00
2019-05-09T04:25:59.183Z,10.10
2019-05-09T04:28:28.558Z,10.10
2019-05-09T04:30:58.230Z,10.10
2019-05-09T04:33:28.046Z,10.10
2019-05-09T04:35:58.018Z,9.90
2019-05-09T04:38:28.014Z,9.70
2019-05-09T04:40:58.439Z,9.70
2019-05-09T04:43:35.593Z,9.50
2019-05-09T04:46:01.116Z,9.40
2019-05-09T04:48:34.567Z,9.30
2019-05-09T04:51:07.881Z,9.40
2019-05-09T04:53:39.918Z,9.20
2019-05-09T04:56:10.376Z,9.30
2019-05-09T04:58:39.737Z,9.40
2019-05-09T05:01:10.733Z,9.40
2019-05-09T05:03:41.736Z,9.40
2019-05-09T05:06:11.076Z,9.40
2019-05-09T05:08:40.418Z,9.40
2019-05-09T05:11:09.778Z,9.60
2019-05-09T05:13:39.117Z,9.60
2019-05-09T05:16:08.585Z,9.70
2019-05-09T05:18:37.904Z,9.90
2019-05-09T05:21:07.786Z,10.00
2019-05-09T05:23:38.939Z,10.10
2019-05-09T05:26:09.455Z,10.10
2019-05-09T05:28:38.810Z,10.30
2019-05-09T05:31:08.175Z,10.40
2019-05-09T05:33:51.130Z,10.50
2019-05-09T05:36:20.808Z,10.40
2019-05-09T05:38:50.164Z,10.70
2019-05-09T05:41:19.538Z,10.70
2019-05-09T05:43:48.887Z,10.60
2019-05-09T05:46:31.686Z,10.80
2019-05-09T05:49:01.098Z,10.90
2019-05-09T05:51:32.380Z,10.90
2019-05-09T05:54:02.568Z,11.00
2019-05-09T05:56:31.938Z,11.00
2019-05-09T05:59:01.290Z,11.00
2019-05-09T06:01:30.668Z,10.90
2019-05-09T06:04:00.031Z,11.00
2019-05-09T06:06:29.405Z,11.10
2019-05-09T06:08:58.746Z,11.10
2019-05-09T06:11:28.323Z,11.10
2019-05-09T06:14:06.261Z,11.10
2019-05-09T06:16:28.823Z,11.10
2019-05-09T06:18:58.767Z,11.10
2019-05-09T06:21:28.487Z,11.20
2019-05-09T06:23:58.556Z,11.30
2019-05-09T06:26:29.241Z,11.30
2019-05-09T06:28:58.830Z,11.20
2019-05-09T06:31:28.567Z,11.30
2019-05-09T06:33:58.039Z,11.30
2019-05-09T06:36:28.308Z,11.40
2019-05-09T06:38:58.745Z,11.30
2019-05-09T06:41:28.765Z,11.30
2019-05-09T06:44:14.427Z,11.10
2019-05-09T06:46:41.722Z,11.30
2019-05-09T06:49:24.295Z,11.30
2019-05-09T06:51:47.630Z,11.30
2019-05-09T06:54:18.540Z,11.30
2019-05-09T06:56:47.838Z,11.50
2019-05-09T06:59:19.097Z,11.50
2019-05-09T07:01:52.697Z,11.50
2019-05-09T07:04:32.388Z,11.70
2019-05-09T07:07:09.169Z,11.80
2019-05-09T07:09:55.210Z,12.10
2019-05-09T07:12:24.622Z,12.30
2019-05-09T07:14:54.282Z,12.20
2019-05-09T07:17:23.729Z,12.30
2019-05-09T07:19:53.101Z,12.20
2019-05-09T07:22:28.092Z,12.30
2019-05-09T07:25:06.781Z,12.40
2019-05-09T07:27:34.731Z,12.40
2019-05-09T07:30:07.894Z,12.40
2019-05-09T07:32:41.487Z,12.40
2019-05-09T07:35:11.780Z,12.40
2019-05-09T07:37:41.152Z,12.50
2019-05-09T07:40:10.750Z,12.50
2019-05-09T07:42:40.113Z,12.50
2019-05-09T07:45:18.102Z,12.60
2019-05-09T07:47:47.974Z,12.70
2019-05-09T07:50:18.877Z,12.60
2019-05-09T07:52:48.647Z,12.60
2019-05-09T07:55:18.303Z,12.60
2019-05-09T07:57:54.946Z,12.70
2019-05-09T08:00:27.734Z,12.50
2019-05-09T08:02:58.105Z,12.50
2019-05-09T08:05:29.811Z,12.50
2019-05-09T08:08:00.887Z,12.70
2019-05-09T08:10:33.123Z,12.60
2019-05-09T08:13:01.329Z,12.70
2019-05-09T08:15:30.793Z,12.60
2019-05-09T08:18:00.128Z,12.60
2019-05-09T08:20:29.478Z,12.80
2019-05-09T08:23:02.130Z,12.70
2019-05-09T08:25:29.940Z,12.60
2019-05-09T08:27:59.314Z,13.00
2019-05-09T08:30:35.420Z,13.20
2019-05-09T08:33:00.156Z,13.20
2019-05-09T08:35:29.552Z,13.20
2019-05-09T08:37:58.906Z,13.20
2019-05-09T08:40:28.659Z,13.20
2019-05-09T08:42:59.024Z,13.10
2019-05-09T08:45:31.431Z,13.10
2019-05-09T08:47:59.733Z,13.00
2019-05-09T08:50:38.936Z,13.10
2019-05-09T08:53:08.370Z,13.00
2019-05-09T08:55:38.449Z,13.10
2019-05-09T08:58:08.273Z,13.00
2019-05-09T09:00:39.095Z,12.90
2019-05-09T09:03:08.760Z,12.90
2019-05-09T09:05:38.407Z,12.80
2019-05-09T09:08:08.501Z,12.60
2019-05-09T09:10:38.730Z,12.40
2019-05-09T09:13:09.063Z,12.10
2019-05-09T09:15:58.031Z,11.90
2019-05-09T09:18:09.602Z,11.80
2019-05-09T09:20:39.043Z,11.80
2019-05-09T09:23:09.122Z,11.80
2019-05-09T09:25:39.187Z,11.90
2019-05-09T09:28:09.111Z,12.00
2019-05-09T09:30:39.116Z,12.20
2019-05-09T09:33:13.229Z,12.20
2019-05-09T09:35:39.553Z,12.20
2019-05-09T09:38:09.462Z,12.20
2019-05-09T09:40:38.873Z,12.20
2019-05-09T09:43:09.214Z,12.20
2019-05-09T09:45:38.798Z,12.40
2019-05-09T09:48:09.128Z,12.60
2019-05-09T09:50:38.688Z,12.70
2019-05-09T09:53:08.980Z,12.70
2019-05-09T09:55:38.858Z,12.80
2019-05-09T09:58:08.439Z,13.00
2019-05-09T10:00:52.185Z,13.00
2019-05-09T10:03:21.679Z,13.10
2019-05-09T10:05:51.041Z,13.00
2019-05-09T10:08:20.427Z,13.10
2019-05-09T10:10:49.827Z,13.10
2019-05-09T10:13:19.137Z,13.40
2019-05-09T10:16:05.162Z,13.40
2019-05-09T10:18:38.123Z,13.50
2019-05-09T10:21:11.695Z,13.80
2019-05-09T10:23:40.998Z,13.80
2019-05-09T10:26:10.407Z,14.00
2019-05-09T10:28:39.713Z,14.10
2019-05-09T10:31:09.417Z,14.30
2019-05-09T10:33:38.913Z,14.30
2019-05-09T10:36:08.742Z,14.40
2019-05-09T10:38:38.722Z,14.40
2019-05-09T10:41:11.220Z,14.50
2019-05-09T10:43:52.930Z,14.60
2019-05-09T10:46:47.720Z,14.80
2019-05-09T10:49:02.650Z,14.80
2019-05-09T10:51:31.971Z,15.00
2019-05-09T10:54:01.280Z,15.10
2019-05-09T10:56:30.612Z,15.00
2019-05-09T10:58:59.923Z,15.10
2019-05-09T11:01:29.730Z,15.20
2019-05-09T11:03:59.400Z,15.40
2019-05-09T11:06:29.139Z,15.60
2019-05-09T11:08:58.792Z,15.60
2019-05-09T11:11:28.749Z,15.70
2019-05-09T11:13:59.088Z,16.00
2019-05-09T11:16:41.766Z,16.00
2019-05-09T11:18:59.675Z,15.70
2019-05-09T11:21:29.076Z,15.70
2019-05-09T11:23:58.780Z,15.50
2019-05-09T11:26:28.862Z,15.50
2019-05-09T11:28:58.960Z,15.40
2019-05-09T11:31:29.543Z,15.40
2019-05-09T11:33:59.176Z,15.30
2019-05-09T11:36:29.160Z,15.10
2019-05-09T11:39:00.685Z,15.10
2019-05-09T11:41:30.402Z,15.10
2019-05-09T11:44:00.044Z,14.80
2019-05-09T11:46:29.462Z,14.70
2019-05-09T11:48:59.267Z,14.60
2019-05-09T11:51:29.434Z,14.50
2019-05-09T11:53:58.932Z,14.30
2019-05-09T11:56:28.248Z,14.20
2019-05-09T11:58:58.034Z,14.10
2019-05-09T12:01:29.313Z,14.10
2019-05-09T12:03:58.442Z,14.00
2019-05-09T12:06:29.009Z,13.80
2019-05-09T12:08:59.074Z,13.60
2019-05-09T12:11:28.726Z,13.60
2019-05-09T12:13:58.408Z,13.50
2019-05-09T12:16:28.123Z,13.50
2019-05-09T12:18:58.435Z,13.40
2019-05-09T12:21:28.549Z,13.20
2019-05-09T12:23:58.538Z,13.20
2019-05-09T12:26:29.153Z,13.20
2019-05-09T12:28:58.839Z,13.30
2019-05-09T12:31:29.123Z,13.30
2019-05-09T12:33:59.206Z,13.30
2019-05-09T12:36:29.102Z,13.40
2019-05-09T12:38:59.392Z,13.50
2019-05-09T12:41:31.430Z,13.50
2019-05-09T12:43:59.841Z,13.60
2019-05-09T12:46:29.148Z,13.60
2019-05-09T12:48:59.296Z,13.60
2019-05-09T12:51:28.782Z,13.60
2019-05-09T12:53:58.280Z,13.70
2019-05-09T12:56:28.473Z,13.80
2019-05-09T12:58:58.225Z,13.80
2019-05-09T13:01:27.559Z,13.80
2019-05-09T13:03:58.338Z,13.80
2019-05-09T13:06:29.250Z,13.90
2019-05-09T13:08:59.088Z,14.00
2019-05-09T13:11:28.441Z,14.10
2019-05-09T13:13:57.740Z,14.20
2019-05-09T13:16:49.018Z,14.20
2019-05-09T13:19:18.312Z,14.20
2019-05-09T13:21:47.168Z,14.10
2019-05-09T13:24:19.469Z,14.10
2019-05-09T13:26:49.181Z,14.00
2019-05-09T13:29:18.506Z,14.00
2019-05-09T13:31:48.369Z,14.00
2019-05-09T13:34:18.817Z,14.10
2019-05-09T13:36:48.876Z,14.20
2019-05-09T13:39:18.436Z,14.10
2019-05-09T13:41:47.819Z,14.20
2019-05-09T13:44:18.136Z,14.30
2019-05-09T13:46:48.910Z,14.30
2019-05-09T13:49:19.323Z,14.10
2019-05-09T13:51:58.528Z,14.00
2019-05-09T13:54:19.949Z,13.80
2019-05-09T13:56:56.773Z,13.60
2019-05-09T13:59:20.373Z,13.50
2019-05-09T14:01:49.711Z,13.40
2019-05-09T14:04:19.059Z,13.40
2019-05-09T14:06:48.803Z,13.50
2019-05-09T14:09:19.987Z,13.50
2019-05-09T14:11:49.239Z,13.50
2019-05-09T14:14:18.557Z,13.50
2019-05-09T14:16:48.062Z,13.70
2019-05-09T14:19:39.147Z,13.80
2019-05-09T14:21:48.417Z,13.90
2019-05-09T14:24:19.254Z,14.10
2019-05-09T14:26:48.810Z,14.20
2019-05-09T14:29:20.471Z,14.30
2019-05-09T14:31:49.252Z,14.30
2019-05-09T14:34:19.724Z,14.30
2019-05-09T14:36:49.677Z,14.40
2019-05-09T14:39:19.148Z,14.40
2019-05-09T14:41:48.552Z,14.30
2019-05-09T14:44:18.327Z,14.30
2019-05-09T14:46:48.319Z,14.60
2019-05-09T14:49:17.868Z,14.90
2019-05-09T14:51:49.749Z,14.90
2019-05-09T14:54:18.324Z,14.80
2019-05-09T14:56:48.575Z,15.10
2019-05-09T14:59:18.764Z,15.30
2019-05-09T15:01:49.611Z,15.20
2019-05-09T15:04:19.201Z,15.20
2019-05-09T15:06:48.863Z,15.00
2019-05-09T15:09:18.424Z,14.90
2019-05-09T15:11:48.553Z,14.70
2019-05-09T15:14:18.293Z,14.60
2019-05-09T15:16:48.492Z,14.60
2019-05-09T15:19:18.355Z,14.30
2019-05-09T15:21:48.745Z,14.10
2019-05-09T15:24:19.227Z,13.90
2019-05-09T15:26:49.017Z,13.80
2019-05-09T15:29:18.328Z,13.50
2019-05-09T15:31:54.510Z,13.40
2019-05-09T15:34:18.786Z,13.40
2019-05-09T15:36:48.383Z,13.50
2019-05-09T15:39:18.468Z,13.60
2019-05-09T15:41:48.026Z,13.80
2019-05-09T15:44:18.621Z,14.00
2019-05-09T15:47:07.791Z,14.00
2019-05-09T15:49:38.520Z,13.90
2019-05-09T15:52:07.935Z,13.90
2019-05-09T15:54:38.623Z,14.00
2019-05-09T15:57:08.728Z,14.10
2019-05-09T15:59:38.937Z,14.40
2019-05-09T16:02:09.259Z,14.70
2019-05-09T16:04:40.141Z,15.00
2019-05-09T16:07:09.806Z,15.00
2019-05-09T16:09:39.129Z,14.90
2019-05-09T16:12:08.460Z,14.60
2019-05-09T16:14:38.156Z,14.60
2019-05-09T16:17:07.933Z,14.60
2019-05-09T16:19:37.783Z,14.50
2019-05-09T16:22:07.964Z,14.50
2019-05-09T16:24:38.219Z,14.40
2019-05-09T16:27:08.461Z,14.40
2019-05-09T16:29:38.410Z,14.30
2019-05-09T16:32:08.805Z,14.10
2019-05-09T16:34:38.781Z,13.80
2019-05-09T16:37:08.254Z,13.70
2019-05-09T16:39:37.971Z,13.50
2019-05-09T16:42:07.509Z,13.60
2019-05-09T16:44:37.804Z,13.60
2019-05-09T16:47:08.429Z,13.70
2019-05-09T16:49:38.676Z,13.80
2019-05-09T16:52:08.178Z,13.80
2019-05-09T16:54:39.145Z,13.90
2019-05-09T16:57:08.464Z,13.90
2019-05-09T16:59:38.765Z,13.80
2019-05-09T17:02:18.956Z,13.80
2019-05-09T17:04:39.521Z,13.80
2019-05-09T17:07:09.039Z,13.90
2019-05-09T17:09:43.120Z,13.90
2019-05-09T17:12:12.434Z,13.90
2019-05-09T17:14:41.766Z,13.80
2019-05-09T17:17:11.100Z,13.90
2019-05-09T17:19:40.501Z,13.90
2019-05-09T17:22:30.071Z,13.90
2019-05-09T17:24:58.559Z,13.80
2019-05-09T17:27:28.137Z,13.90
2019-05-09T17:29:57.552Z,13.80
2019-05-09T17:32:28.511Z,13.90
2019-05-09T17:34:58.284Z,13.90
2019-05-09T17:37:28.676Z,13.90
2019-05-09T17:39:58.055Z,13.90
2019-05-09T17:42:27.781Z,13.90
2019-05-09T17:44:57.912Z,13.90
2019-05-09T17:47:28.412Z,14.00
2019-05-09T17:49:57.960Z,14.00
2019-05-09T17:52:27.280Z,14.00
2019-05-09T17:54:58.969Z,14.00
2019-05-09T17:57:27.978Z,14.00
2019-05-09T17:59:58.386Z,14.00
2019-05-09T18:02:28.215Z,14.10
2019-05-09T18:04:58.274Z,14.10
2019-05-09T18:07:28.061Z,14.10
2019-05-09T18:09:58.070Z,14.10
2019-05-09T18:12:27.837Z,14.00
2019-05-09T18:14:57.203Z,14.00
2019-05-09T18:17:27.584Z,13.90
2019-05-09T18:19:58.437Z,13.80
2019-05-09T18:22:27.875Z,13.70
2019-05-09T18:24:57.761Z,13.70
2019-05-09T18:27:27.506Z,13.60
2019-05-09T18:29:58.310Z,13.60
2019-05-09T18:32:41.171Z,13.50
2019-05-09T18:35:12.752Z,13.30
2019-05-09T18:37:42.128Z,13.20
2019-05-09T18:40:12.890Z,13.20
2019-05-09T18:42:42.196Z,13.20
2019-05-09T18:45:12.838Z,13.10
2019-05-09T18:47:42.231Z,13.10
2019-05-09T18:50:12.193Z,13.10
2019-05-09T18:52:41.507Z,13.20
2019-05-09T18:55:11.569Z,13.20
2019-05-09T18:57:40.880Z,13.20
2019-05-09T19:00:13.907Z,13.20
2019-05-09T19:02:43.290Z,13.20
2019-05-09T19:05:13.952Z,13.20
2019-05-09T19:07:43.279Z,13.20
2019-05-09T19:10:13.319Z,13.20
2019-05-09T19:12:42.699Z,13.20
2019-05-09T19:15:23.928Z,13.20
2019-05-09T19:18:00.303Z,13.30
2019-05-09T19:20:34.107Z,13.20
2019-05-09T19:23:03.464Z,13.20
2019-05-09T19:25:34.337Z,13.20
2019-05-09T19:28:05.529Z,13.30
2019-05-09T19:30:35.008Z,13.20
2019-05-09T19:33:04.866Z,13.20
2019-05-09T19:35:34.215Z,13.20
2019-05-09T19:38:06.577Z,13.20
2019-05-09T19:40:35.986Z,13.20
2019-05-09T19:43:05.426Z,13.10
2019-05-09T19:45:34.746Z,13.10
2019-05-09T19:48:04.214Z,13.10
2019-05-09T19:50:33.529Z,13.20
2019-05-09T19:53:02.862Z,13.20
2019-05-09T19:55:32.178Z,13.20
2019-05-09T19:58:01.516Z,13.10
2019-05-09T20:00:30.894Z,13.10
2019-05-09T20:03:00.236Z,13.20
2019-05-09T20:05:29.544Z,13.20
2019-05-09T20:07:58.944Z,13.10
2019-05-09T20:10:45.953Z,13.20
2019-05-09T20:13:26.144Z,13.20
2019-05-09T20:15:55.435Z,13.20
2019-05-09T20:18:24.866Z,13.20
2019-05-09T20:20:54.209Z,13.10
2019-05-09T20:23:23.689Z,13.10
2019-05-09T20:25:53.035Z,13.10
2019-05-09T20:28:22.393Z,13.10
2019-05-09T20:30:51.684Z,13.10
2019-05-09T20:33:21.102Z,13.00
2019-05-09T20:35:50.547Z,13.10
2019-05-09T20:38:20.094Z,13.10
2019-05-09T20:40:49.580Z,13.00
2019-05-09T20:43:19.134Z,13.00
2019-05-09T20:45:48.639Z,13.00
2019-05-09T20:48:18.176Z,13.00
2019-05-09T20:50:47.664Z,12.90
2019-05-09T20:53:17.184Z,12.90
2019-05-09T20:55:46.738Z,12.90
2019-05-09T20:58:16.412Z,13.00
2019-05-09T21:00:45.916Z,13.00
2019-05-09T21:03:15.433Z,12.90
2019-05-09T21:05:44.933Z,12.90
2019-05-09T21:08:14.448Z,12.80
2019-05-09T21:10:43.944Z,12.80
2019-05-09T21:13:13.456Z,12.80
2019-05-09T21:15:42.953Z,12.70
2019-05-09T21:18:12.507Z,12.70
2019-05-09T21:20:42.242Z,12.70
2019-05-09T21:23:23.882Z,12.70
2019-05-09T21:25:43.052Z,12.70
2019-05-09T21:28:12.572Z,12.60
2019-05-09T21:30:42.137Z,12.60
2019-05-09T21:33:11.722Z,12.60
2019-05-09T21:35:41.037Z,12.60
2019-05-09T21:38:10.366Z,12.60
2019-05-09T21:40:39.686Z,12.60
2019-05-09T21:43:09.016Z,12.60
2019-05-09T21:45:38.352Z,12.60
2019-05-09T21:48:07.694Z,12.60
2019-05-09T21:50:37.007Z,12.60
2019-05-09T21:53:07.974Z,12.50
2019-05-09T21:55:37.283Z,12.60
2019-05-09T21:58:06.646Z,12.60
2019-05-09T22:00:38.963Z,12.50
2019-05-09T22:03:09.010Z,12.40
2019-05-09T22:05:38.384Z,12.30
2019-05-09T22:08:07.789Z,12.20
2019-05-09T22:10:37.176Z,12.20
2019-05-09T22:13:06.581Z,12.20
2019-05-09T22:15:35.966Z,12.20
2019-05-09T22:18:05.441Z,12.20
2019-05-09T22:20:34.746Z,12.20
2019-05-09T22:23:06.390Z,12.20
2019-05-09T22:25:35.183Z,12.20
2019-05-09T22:28:04.631Z,12.20
2019-05-09T22:30:33.980Z,12.20
2019-05-09T22:33:03.283Z,12.30
2019-05-09T22:35:32.606Z,12.20
2019-05-09T22:38:01.921Z,12.20
2019-05-09T22:40:31.255Z,12.20
2019-05-09T22:43:00.562Z,12.20
2019-05-09T22:45:29.893Z,12.10
2019-05-09T22:47:59.207Z,12.10
2019-05-09T22:50:28.614Z,12.20
2019-05-09T22:52:57.925Z,12.20
2019-05-09T22:55:27.267Z,12.20
2019-05-09T22:57:56.590Z,12.20
2019-05-09T23:00:25.986Z,12.20
2019-05-09T23:02:55.295Z,12.10
2019-05-09T23:05:24.636Z,12.10
2019-05-09T23:07:53.949Z,12.20
2019-05-09T23:10:23.286Z,12.20
2019-05-09T23:12:52.598Z,12.20
2019-05-09T23:15:21.949Z,12.10
2019-05-09T23:17:51.268Z,12.10
2019-05-09T23:20:25.138Z,12.10
2019-05-09T23:22:54.646Z,12.00
2019-05-09T23:25:23.987Z,12.10
2019-05-09T23:27:53.302Z,12.00
2019-05-09T23:30:22.640Z,12.00
2019-05-09T23:32:51.958Z,12.00
2019-05-09T23:35:21.292Z,12.00
2019-05-09T23:37:50.680Z,12.00
2019-05-09T23:40:20.013Z,11.90
2019-05-09T23:42:49.325Z,11.80
2019-05-09T23:45:18.665Z,11.90
2019-05-09T23:47:47.985Z,11.90
2019-05-09T23:50:17.328Z,12.00
2019-05-09T23:52:46.639Z,11.90
2019-05-09T23:55:33.852Z,11.80
2019-05-09T23:58:20.491Z,11.80
